sensor_id;sensor_type;location;lat;lon;timestamp;P1;durP1;ratioP1;P2;durP2;ratioP2
46875;SDS011;32866;50.160;14.768;2022-11-11T00:01:40;21.63;;;10.95;;
46875;SDS011;32866;50.160;14.768;2022-11-11T00:04:05;36.63;;;14.82;;
46875;SDS011;32866;50.160;14.768;2022-11-11T00:06:31;19.55;;;8.95;;
46875;SDS011;32866;50.160;14.768;2022-11-11T00:08:56;28.73;;;14.10;;
46875;SDS011;32866;50.160;14.768;2022-11-11T00:11:22;141.50;;;47.85;;
46875;SDS011;32866;50.160;14.768;2022-11-11T00:13:47;156.95;;;52.67;;
46875;SDS011;32866;50.160;14.768;2022-11-11T00:16:16;160.48;;;56.13;;
46875;SDS011;32866;50.160;14.768;2022-11-11T00:18:43;140.50;;;50.53;;
46875;SDS011;32866;50.160;14.768;2022-11-11T00:21:28;98.17;;;40.50;;
46875;SDS011;32866;50.160;14.768;2022-11-11T00:24:20;58.47;;;23.53;;
46875;SDS011;32866;50.160;14.768;2022-11-11T00:27:09;66.33;;;23.50;;
46875;SDS011;32866;50.160;14.768;2022-11-11T00:29:35;68.87;;;25.07;;
46875;SDS011;32866;50.160;14.768;2022-11-11T00:32:02;128.63;;;43.87;;
46875;SDS011;32866;50.160;14.768;2022-11-11T00:34:45;78.40;;;28.07;;
46875;SDS011;32866;50.160;14.768;2022-11-11T00:37:31;53.97;;;21.23;;
46875;SDS011;32866;50.160;14.768;2022-11-11T00:39:57;39.20;;;17.37;;
46875;SDS011;32866;50.160;14.768;2022-11-11T00:42:23;16.88;;;9.63;;
46875;SDS011;32866;50.160;14.768;2022-11-11T00:44:48;17.75;;;8.32;;
46875;SDS011;32866;50.160;14.768;2022-11-11T00:47:13;14.80;;;8.73;;
46875;SDS011;32866;50.160;14.768;2022-11-11T00:49:57;13.50;;;7.47;;
46875;SDS011;32866;50.160;14.768;2022-11-11T00:52:43;16.20;;;8.00;;
46875;SDS011;32866;50.160;14.768;2022-11-11T00:55:10;18.33;;;8.67;;
46875;SDS011;32866;50.160;14.768;2022-11-11T00:57:35;14.43;;;8.60;;
46875;SDS011;32866;50.160;14.768;2022-11-11T01:00:01;12.60;;;7.75;;
46875;SDS011;32866;50.160;14.768;2022-11-11T01:02:27;17.23;;;8.65;;
46875;SDS011;32866;50.160;14.768;2022-11-11T01:04:52;12.40;;;7.82;;
46875;SDS011;32866;50.160;14.768;2022-11-11T01:07:18;11.10;;;6.88;;
46875;SDS011;32866;50.160;14.768;2022-11-11T01:09:43;13.73;;;8.68;;
46875;SDS011;32866;50.160;14.768;2022-11-11T01:12:08;15.82;;;9.15;;
46875;SDS011;32866;50.160;14.768;2022-11-11T01:14:34;16.83;;;8.32;;
46875;SDS011;32866;50.160;14.768;2022-11-11T01:16:59;13.23;;;8.73;;
46875;SDS011;32866;50.160;14.768;2022-11-11T01:19:24;12.88;;;8.65;;
46875;SDS011;32866;50.160;14.768;2022-11-11T01:21:50;14.15;;;8.40;;
46875;SDS011;32866;50.160;14.768;2022-11-11T01:24:15;13.30;;;7.60;;
46875;SDS011;32866;50.160;14.768;2022-11-11T01:26:40;15.98;;;9.73;;
46875;SDS011;32866;50.160;14.768;2022-11-11T01:29:06;16.40;;;10.70;;
46875;SDS011;32866;50.160;14.768;2022-11-11T01:31:31;18.65;;;9.75;;
46875;SDS011;32866;50.160;14.768;2022-11-11T01:33:56;33.42;;;10.07;;
46875;SDS011;32866;50.160;14.768;2022-11-11T01:36:23;19.00;;;10.32;;
46875;SDS011;32866;50.160;14.768;2022-11-11T01:38:51;19.20;;;9.83;;
46875;SDS011;32866;50.160;14.768;2022-11-11T01:41:25;19.97;;;10.33;;
46875;SDS011;32866;50.160;14.768;2022-11-11T01:43:57;16.93;;;10.10;;
46875;SDS011;32866;50.160;14.768;2022-11-11T01:46:27;16.00;;;10.47;;
46875;SDS011;32866;50.160;14.768;2022-11-11T01:49:20;19.37;;;10.27;;
46875;SDS011;32866;50.160;14.768;2022-11-11T01:54:29;25.83;;;10.13;;
46875;SDS011;32866;50.160;14.768;2022-11-11T01:57:16;26.77;;;11.00;;
46875;SDS011;32866;50.160;14.768;2022-11-11T01:59:49;19.00;;;9.50;;
46875;SDS011;32866;50.160;14.768;2022-11-11T02:02:47;29.70;;;10.10;;
46875;SDS011;32866;50.160;14.768;2022-11-11T02:05:22;21.87;;;9.67;;
46875;SDS011;32866;50.160;14.768;2022-11-11T02:08:07;26.20;;;9.77;;
46875;SDS011;32866;50.160;14.768;2022-11-11T02:10:43;18.63;;;10.00;;
46875;SDS011;32866;50.160;14.768;2022-11-11T02:13:11;20.13;;;10.57;;
46875;SDS011;32866;50.160;14.768;2022-11-11T02:15:57;16.97;;;9.97;;
46875;SDS011;32866;50.160;14.768;2022-11-11T02:18:22;15.57;;;9.45;;
46875;SDS011;32866;50.160;14.768;2022-11-11T02:20:48;14.32;;;8.85;;
46875;SDS011;32866;50.160;14.768;2022-11-11T02:23:24;18.35;;;10.43;;
46875;SDS011;32866;50.160;14.768;2022-11-11T02:25:55;14.07;;;8.63;;
46875;SDS011;32866;50.160;14.768;2022-11-11T02:28:22;17.97;;;10.07;;
46875;SDS011;32866;50.160;14.768;2022-11-11T02:30:50;18.37;;;9.77;;
46875;SDS011;32866;50.160;14.768;2022-11-11T02:33:15;15.93;;;9.68;;
46875;SDS011;32866;50.160;14.768;2022-11-11T02:35:44;18.60;;;10.50;;
46875;SDS011;32866;50.160;14.768;2022-11-11T02:38:18;14.17;;;9.10;;
46875;SDS011;32866;50.160;14.768;2022-11-11T02:40:44;15.10;;;8.45;;
46875;SDS011;32866;50.160;14.768;2022-11-11T02:43:29;11.17;;;8.60;;
46875;SDS011;32866;50.160;14.768;2022-11-11T02:45:56;18.70;;;10.30;;
46875;SDS011;32866;50.160;14.768;2022-11-11T02:48:22;14.60;;;8.98;;
46875;SDS011;32866;50.160;14.768;2022-11-11T02:53:13;12.60;;;8.40;;
46875;SDS011;32866;50.160;14.768;2022-11-11T02:55:38;16.33;;;9.55;;
46875;SDS011;32866;50.160;14.768;2022-11-11T02:58:04;14.13;;;8.68;;
46875;SDS011;32866;50.160;14.768;2022-11-11T03:00:29;15.23;;;9.38;;
46875;SDS011;32866;50.160;14.768;2022-11-11T03:02:55;14.82;;;9.90;;
46875;SDS011;32866;50.160;14.768;2022-11-11T03:05:20;15.85;;;9.43;;
46875;SDS011;32866;50.160;14.768;2022-11-11T03:07:46;13.27;;;8.95;;
46875;SDS011;32866;50.160;14.768;2022-11-11T03:10:11;18.15;;;9.40;;
46875;SDS011;32866;50.160;14.768;2022-11-11T03:12:36;18.52;;;9.70;;
46875;SDS011;32866;50.160;14.768;2022-11-11T03:15:02;21.13;;;9.38;;
46875;SDS011;32866;50.160;14.768;2022-11-11T03:17:28;16.03;;;9.50;;
46875;SDS011;32866;50.160;14.768;2022-11-11T03:20:03;14.23;;;8.90;;
46875;SDS011;32866;50.160;14.768;2022-11-11T03:25:33;13.60;;;7.83;;
46875;SDS011;32866;50.160;14.768;2022-11-11T03:28:08;13.60;;;8.47;;
46875;SDS011;32866;50.160;14.768;2022-11-11T03:30:35;12.53;;;7.93;;
46875;SDS011;32866;50.160;14.768;2022-11-11T03:33:02;12.37;;;7.97;;
46875;SDS011;32866;50.160;14.768;2022-11-11T03:35:27;15.35;;;8.82;;
46875;SDS011;32866;50.160;14.768;2022-11-11T03:37:53;14.27;;;9.23;;
46875;SDS011;32866;50.160;14.768;2022-11-11T03:40:37;15.33;;;8.93;;
46875;SDS011;32866;50.160;14.768;2022-11-11T03:43:03;13.95;;;9.90;;
46875;SDS011;32866;50.160;14.768;2022-11-11T03:45:29;12.48;;;8.10;;
46875;SDS011;32866;50.160;14.768;2022-11-11T03:47:54;15.50;;;7.93;;
46875;SDS011;32866;50.160;14.768;2022-11-11T03:50:22;12.40;;;8.13;;
46875;SDS011;32866;50.160;14.768;2022-11-11T03:52:48;13.53;;;8.73;;
46875;SDS011;32866;50.160;14.768;2022-11-11T03:55:13;16.15;;;10.35;;
46875;SDS011;32866;50.160;14.768;2022-11-11T03:57:44;12.63;;;9.00;;
46875;SDS011;32866;50.160;14.768;2022-11-11T04:00:11;14.47;;;9.20;;
46875;SDS011;32866;50.160;14.768;2022-11-11T04:02:37;16.80;;;8.97;;
46875;SDS011;32866;50.160;14.768;2022-11-11T04:05:21;12.83;;;8.80;;
46875;SDS011;32866;50.160;14.768;2022-11-11T04:08:07;14.60;;;8.67;;
46875;SDS011;32866;50.160;14.768;2022-11-11T04:10:55;12.33;;;9.07;;
46875;SDS011;32866;50.160;14.768;2022-11-11T04:13:21;14.88;;;8.30;;
46875;SDS011;32866;50.160;14.768;2022-11-11T04:16:05;18.90;;;9.87;;
46875;SDS011;32866;50.160;14.768;2022-11-11T04:18:30;17.38;;;8.88;;
46875;SDS011;32866;50.160;14.768;2022-11-11T04:21:18;18.13;;;7.53;;
46875;SDS011;32866;50.160;14.768;2022-11-11T04:24:02;14.27;;;8.37;;
46875;SDS011;32866;50.160;14.768;2022-11-11T04:26:48;13.17;;;6.07;;
46875;SDS011;32866;50.160;14.768;2022-11-11T04:29:13;17.35;;;7.68;;
46875;SDS011;32866;50.160;14.768;2022-11-11T04:34:38;14.17;;;7.97;;
46875;SDS011;32866;50.160;14.768;2022-11-11T04:37:05;14.13;;;8.27;;
46875;SDS011;32866;50.160;14.768;2022-11-11T04:39:30;11.07;;;7.78;;
46875;SDS011;32866;50.160;14.768;2022-11-11T04:42:14;14.93;;;7.40;;
46875;SDS011;32866;50.160;14.768;2022-11-11T04:44:40;11.38;;;7.30;;
46875;SDS011;32866;50.160;14.768;2022-11-11T04:47:24;11.33;;;7.07;;
46875;SDS011;32866;50.160;14.768;2022-11-11T04:49:49;11.05;;;7.03;;
46875;SDS011;32866;50.160;14.768;2022-11-11T04:52:14;11.13;;;6.78;;
46875;SDS011;32866;50.160;14.768;2022-11-11T04:54:52;17.40;;;8.63;;
46875;SDS011;32866;50.160;14.768;2022-11-11T04:57:41;9.20;;;6.97;;
46875;SDS011;32866;50.160;14.768;2022-11-11T05:00:14;10.13;;;7.03;;
46875;SDS011;32866;50.160;14.768;2022-11-11T05:02:42;12.37;;;8.30;;
46875;SDS011;32866;50.160;14.768;2022-11-11T05:05:26;9.07;;;6.30;;
46875;SDS011;32866;50.160;14.768;2022-11-11T05:07:52;10.13;;;6.85;;
46875;SDS011;32866;50.160;14.768;2022-11-11T05:10:36;12.03;;;8.07;;
46875;SDS011;32866;50.160;14.768;2022-11-11T05:13:02;9.85;;;7.53;;
46875;SDS011;32866;50.160;14.768;2022-11-11T05:15:47;13.13;;;8.07;;
46875;SDS011;32866;50.160;14.768;2022-11-11T05:18:30;14.37;;;8.67;;
46875;SDS011;32866;50.160;14.768;2022-11-11T05:21:15;19.03;;;8.20;;
46875;SDS011;32866;50.160;14.768;2022-11-11T05:23:47;11.40;;;7.60;;
46875;SDS011;32866;50.160;14.768;2022-11-11T05:26:32;12.83;;;7.23;;
46875;SDS011;32866;50.160;14.768;2022-11-11T05:28:57;12.60;;;8.45;;
46875;SDS011;32866;50.160;14.768;2022-11-11T05:31:22;14.90;;;9.00;;
46875;SDS011;32866;50.160;14.768;2022-11-11T05:33:48;18.38;;;9.85;;
46875;SDS011;32866;50.160;14.768;2022-11-11T05:36:13;20.63;;;11.45;;
46875;SDS011;32866;50.160;14.768;2022-11-11T05:38:39;21.33;;;11.60;;
46875;SDS011;32866;50.160;14.768;2022-11-11T05:41:04;23.25;;;12.18;;
46875;SDS011;32866;50.160;14.768;2022-11-11T05:45:55;21.27;;;11.83;;
46875;SDS011;32866;50.160;14.768;2022-11-11T05:48:21;19.33;;;12.27;;
46875;SDS011;32866;50.160;14.768;2022-11-11T05:50:46;18.35;;;12.35;;
46875;SDS011;32866;50.160;14.768;2022-11-11T05:53:12;18.80;;;12.85;;
46875;SDS011;32866;50.160;14.768;2022-11-11T05:55:37;19.95;;;11.20;;
46875;SDS011;32866;50.160;14.768;2022-11-11T05:58:02;22.15;;;10.32;;
46875;SDS011;32866;50.160;14.768;2022-11-11T06:00:28;16.92;;;11.77;;
46875;SDS011;32866;50.160;14.768;2022-11-11T06:02:53;20.17;;;12.88;;
46875;SDS011;32866;50.160;14.768;2022-11-11T06:05:19;18.48;;;11.55;;
46875;SDS011;32866;50.160;14.768;2022-11-11T06:07:44;22.40;;;12.95;;
46875;SDS011;32866;50.160;14.768;2022-11-11T06:10:10;23.95;;;14.32;;
46875;SDS011;32866;50.160;14.768;2022-11-11T06:12:53;19.90;;;12.87;;
46875;SDS011;32866;50.160;14.768;2022-11-11T06:15:34;22.63;;;13.83;;
46875;SDS011;32866;50.160;14.768;2022-11-11T06:18:01;20.03;;;13.40;;
46875;SDS011;32866;50.160;14.768;2022-11-11T06:20:28;21.87;;;13.23;;
46875;SDS011;32866;50.160;14.768;2022-11-11T06:22:54;23.88;;;13.10;;
46875;SDS011;32866;50.160;14.768;2022-11-11T06:25:23;20.03;;;11.70;;
46875;SDS011;32866;50.160;14.768;2022-11-11T06:28:12;22.50;;;12.07;;
46875;SDS011;32866;50.160;14.768;2022-11-11T06:30:39;21.53;;;12.27;;
46875;SDS011;32866;50.160;14.768;2022-11-11T06:33:04;19.15;;;13.70;;
46875;SDS011;32866;50.160;14.768;2022-11-11T06:35:33;23.63;;;13.50;;
46875;SDS011;32866;50.160;14.768;2022-11-11T06:38:00;24.93;;;13.47;;
46875;SDS011;32866;50.160;14.768;2022-11-11T06:40:27;23.73;;;13.63;;
46875;SDS011;32866;50.160;14.768;2022-11-11T06:42:53;26.63;;;12.85;;
46875;SDS011;32866;50.160;14.768;2022-11-11T06:45:18;18.52;;;11.80;;
46875;SDS011;32866;50.160;14.768;2022-11-11T06:47:43;20.92;;;13.73;;
46875;SDS011;32866;50.160;14.768;2022-11-11T06:50:09;18.02;;;10.88;;
46875;SDS011;32866;50.160;14.768;2022-11-11T06:52:34;21.30;;;13.35;;
46875;SDS011;32866;50.160;14.768;2022-11-11T06:55:00;20.88;;;12.00;;
46875;SDS011;32866;50.160;14.768;2022-11-11T06:57:25;19.15;;;11.77;;
46875;SDS011;32866;50.160;14.768;2022-11-11T06:59:51;18.73;;;12.43;;
46875;SDS011;32866;50.160;14.768;2022-11-11T07:02:16;21.15;;;12.20;;
46875;SDS011;32866;50.160;14.768;2022-11-11T07:04:42;25.13;;;13.45;;
46875;SDS011;32866;50.160;14.768;2022-11-11T07:07:07;23.67;;;13.07;;
46875;SDS011;32866;50.160;14.768;2022-11-11T07:09:33;22.25;;;13.25;;
46875;SDS011;32866;50.160;14.768;2022-11-11T07:11:58;25.85;;;13.80;;
46875;SDS011;32866;50.160;14.768;2022-11-11T07:14:23;21.30;;;12.25;;
46875;SDS011;32866;50.160;14.768;2022-11-11T07:16:49;18.55;;;12.13;;
46875;SDS011;32866;50.160;14.768;2022-11-11T07:19:14;28.52;;;12.75;;
46875;SDS011;32866;50.160;14.768;2022-11-11T07:21:40;22.33;;;14.23;;
46875;SDS011;32866;50.160;14.768;2022-11-11T07:24:05;20.95;;;12.02;;
46875;SDS011;32866;50.160;14.768;2022-11-11T07:26:31;24.60;;;14.30;;
46875;SDS011;32866;50.160;14.768;2022-11-11T07:28:56;28.98;;;16.40;;
46875;SDS011;32866;50.160;14.768;2022-11-11T07:31:22;26.05;;;14.55;;
46875;SDS011;32866;50.160;14.768;2022-11-11T07:33:47;26.23;;;15.55;;
46875;SDS011;32866;50.160;14.768;2022-11-11T07:36:12;23.00;;;14.25;;
46875;SDS011;32866;50.160;14.768;2022-11-11T07:38:38;23.45;;;13.90;;
46875;SDS011;32866;50.160;14.768;2022-11-11T07:41:03;21.95;;;14.32;;
46875;SDS011;32866;50.160;14.768;2022-11-11T07:43:29;27.30;;;13.73;;
46875;SDS011;32866;50.160;14.768;2022-11-11T07:45:54;21.33;;;12.55;;
46875;SDS011;32866;50.160;14.768;2022-11-11T07:48:20;21.42;;;14.05;;
46875;SDS011;32866;50.160;14.768;2022-11-11T07:50:45;26.85;;;13.98;;
46875;SDS011;32866;50.160;14.768;2022-11-11T07:53:11;19.20;;;12.73;;
46875;SDS011;32866;50.160;14.768;2022-11-11T07:55:36;19.25;;;12.10;;
46875;SDS011;32866;50.160;14.768;2022-11-11T07:58:01;22.08;;;12.88;;
46875;SDS011;32866;50.160;14.768;2022-11-11T08:00:27;22.05;;;12.60;;
46875;SDS011;32866;50.160;14.768;2022-11-11T08:02:52;22.25;;;12.85;;
46875;SDS011;32866;50.160;14.768;2022-11-11T08:05:17;16.88;;;12.23;;
46875;SDS011;32866;50.160;14.768;2022-11-11T08:07:43;18.02;;;11.98;;
46875;SDS011;32866;50.160;14.768;2022-11-11T08:10:09;20.20;;;11.40;;
46875;SDS011;32866;50.160;14.768;2022-11-11T08:12:35;18.37;;;11.13;;
46875;SDS011;32866;50.160;14.768;2022-11-11T08:15:19;19.53;;;10.80;;
46875;SDS011;32866;50.160;14.768;2022-11-11T08:17:45;19.45;;;11.75;;
46875;SDS011;32866;50.160;14.768;2022-11-11T08:20:10;15.93;;;10.55;;
46875;SDS011;32866;50.160;14.768;2022-11-11T08:22:40;16.88;;;10.88;;
46875;SDS011;32866;50.160;14.768;2022-11-11T08:25:07;17.83;;;11.73;;
46875;SDS011;32866;50.160;14.768;2022-11-11T08:27:38;18.83;;;12.13;;
46875;SDS011;32866;50.160;14.768;2022-11-11T08:30:05;18.58;;;12.63;;
46875;SDS011;32866;50.160;14.768;2022-11-11T08:32:32;20.50;;;11.23;;
46875;SDS011;32866;50.160;14.768;2022-11-11T08:34:57;18.05;;;12.40;;
46875;SDS011;32866;50.160;14.768;2022-11-11T08:37:23;19.48;;;12.20;;
46875;SDS011;32866;50.160;14.768;2022-11-11T08:39:48;19.13;;;12.20;;
46875;SDS011;32866;50.160;14.768;2022-11-11T08:42:14;19.52;;;11.60;;
46875;SDS011;32866;50.160;14.768;2022-11-11T08:44:39;25.40;;;12.35;;
46875;SDS011;32866;50.160;14.768;2022-11-11T08:47:05;17.88;;;11.57;;
46875;SDS011;32866;50.160;14.768;2022-11-11T08:49:30;17.60;;;12.60;;
46875;SDS011;32866;50.160;14.768;2022-11-11T08:51:55;20.98;;;12.73;;
46875;SDS011;32866;50.160;14.768;2022-11-11T08:54:21;20.90;;;13.43;;
46875;SDS011;32866;50.160;14.768;2022-11-11T08:56:46;23.20;;;13.43;;
46875;SDS011;32866;50.160;14.768;2022-11-11T08:59:11;20.25;;;12.82;;
46875;SDS011;32866;50.160;14.768;2022-11-11T09:01:37;23.23;;;14.93;;
46875;SDS011;32866;50.160;14.768;2022-11-11T09:04:02;22.80;;;13.18;;
46875;SDS011;32866;50.160;14.768;2022-11-11T09:06:28;21.45;;;12.40;;
46875;SDS011;32866;50.160;14.768;2022-11-11T09:08:53;23.40;;;13.07;;
46875;SDS011;32866;50.160;14.768;2022-11-11T09:11:19;20.30;;;13.13;;
46875;SDS011;32866;50.160;14.768;2022-11-11T09:13:47;18.38;;;13.52;;
46875;SDS011;32866;50.160;14.768;2022-11-11T09:16:13;25.17;;;14.03;;
46875;SDS011;32866;50.160;14.768;2022-11-11T09:18:38;23.85;;;14.75;;
46875;SDS011;32866;50.160;14.768;2022-11-11T09:21:04;24.10;;;15.20;;
46875;SDS011;32866;50.160;14.768;2022-11-11T09:23:30;23.77;;;14.45;;
46875;SDS011;32866;50.160;14.768;2022-11-11T09:25:56;21.48;;;13.48;;
46875;SDS011;32866;50.160;14.768;2022-11-11T09:28:27;22.03;;;15.03;;
46875;SDS011;32866;50.160;14.768;2022-11-11T09:30:53;21.23;;;13.25;;
46875;SDS011;32866;50.160;14.768;2022-11-11T09:33:18;25.08;;;14.32;;
46875;SDS011;32866;50.160;14.768;2022-11-11T09:35:44;22.60;;;14.00;;
46875;SDS011;32866;50.160;14.768;2022-11-11T09:38:09;27.13;;;16.25;;
46875;SDS011;32866;50.160;14.768;2022-11-11T09:46:21;26.83;;;16.58;;
46875;SDS011;32866;50.160;14.768;2022-11-11T09:51:39;24.95;;;14.52;;
46875;SDS011;32866;50.160;14.768;2022-11-11T09:54:15;21.53;;;14.43;;
46875;SDS011;32866;50.160;14.768;2022-11-11T09:56:43;24.20;;;14.40;;
46875;SDS011;32866;50.160;14.768;2022-11-11T10:01:52;21.37;;;13.20;;
46875;SDS011;32866;50.160;14.768;2022-11-11T10:07:18;21.03;;;13.90;;
46875;SDS011;32866;50.160;14.768;2022-11-11T10:09:59;23.67;;;14.43;;
46875;SDS011;32866;50.160;14.768;2022-11-11T10:12:34;21.13;;;14.47;;
46875;SDS011;32866;50.160;14.768;2022-11-11T10:15:04;21.10;;;14.43;;
46875;SDS011;32866;50.160;14.768;2022-11-11T10:17:38;19.97;;;13.10;;
46875;SDS011;32866;50.160;14.768;2022-11-11T10:20:14;32.10;;;16.20;;
46875;SDS011;32866;50.160;14.768;2022-11-11T10:22:42;20.43;;;13.20;;
46875;SDS011;32866;50.160;14.768;2022-11-11T10:27:38;24.53;;;14.00;;
46875;SDS011;32866;50.160;14.768;2022-11-11T10:30:07;22.93;;;13.13;;
46875;SDS011;32866;50.160;14.768;2022-11-11T10:32:40;20.80;;;12.27;;
46875;SDS011;32866;50.160;14.768;2022-11-11T10:35:42;18.03;;;11.60;;
46875;SDS011;32866;50.160;14.768;2022-11-11T10:40:40;21.77;;;12.87;;
46875;SDS011;32866;50.160;14.768;2022-11-11T10:43:23;22.57;;;13.30;;
46875;SDS011;32866;50.160;14.768;2022-11-11T10:46:00;21.13;;;12.23;;
46875;SDS011;32866;50.160;14.768;2022-11-11T10:48:55;35.00;;;17.43;;
46875;SDS011;32866;50.160;14.768;2022-11-11T10:51:29;30.13;;;17.37;;
46875;SDS011;32866;50.160;14.768;2022-11-11T10:54:04;24.67;;;16.60;;
46875;SDS011;32866;50.160;14.768;2022-11-11T10:56:36;27.47;;;16.37;;
46875;SDS011;32866;50.160;14.768;2022-11-11T11:02:18;21.65;;;12.82;;
46875;SDS011;32866;50.160;14.768;2022-11-11T11:07:19;20.23;;;14.17;;
46875;SDS011;32866;50.160;14.768;2022-11-11T11:09:58;25.17;;;14.37;;
46875;SDS011;32866;50.160;14.768;2022-11-11T11:15:56;29.03;;;16.37;;
46875;SDS011;32866;50.160;14.768;2022-11-11T11:18:24;21.33;;;14.40;;
46875;SDS011;32866;50.160;14.768;2022-11-11T11:23:39;25.77;;;15.30;;
46875;SDS011;32866;50.160;14.768;2022-11-11T11:26:06;23.97;;;14.70;;
46875;SDS011;32866;50.160;14.768;2022-11-11T11:28:33;72.27;;;26.57;;
46875;SDS011;32866;50.160;14.768;2022-11-11T11:31:00;64.93;;;24.83;;
46875;SDS011;32866;50.160;14.768;2022-11-11T11:33:37;43.43;;;20.13;;
46875;SDS011;32866;50.160;14.768;2022-11-11T11:36:15;50.50;;;20.83;;
46875;SDS011;32866;50.160;14.768;2022-11-11T11:38:42;44.70;;;21.23;;
46875;SDS011;32866;50.160;14.768;2022-11-11T11:41:14;43.37;;;20.30;;
46875;SDS011;32866;50.160;14.768;2022-11-11T11:43:43;33.33;;;17.60;;
46875;SDS011;32866;50.160;14.768;2022-11-11T11:46:18;32.67;;;16.37;;
46875;SDS011;32866;50.160;14.768;2022-11-11T11:51:29;25.83;;;15.87;;
46875;SDS011;32866;50.160;14.768;2022-11-11T11:56:53;20.53;;;14.27;;
46875;SDS011;32866;50.160;14.768;2022-11-11T11:59:27;23.47;;;14.40;;
46875;SDS011;32866;50.160;14.768;2022-11-11T12:04:57;19.87;;;12.53;;
46875;SDS011;32866;50.160;14.768;2022-11-11T12:12:55;16.00;;;11.60;;
46875;SDS011;32866;50.160;14.768;2022-11-11T12:21:17;18.97;;;12.33;;
46875;SDS011;32866;50.160;14.768;2022-11-11T12:26:48;16.67;;;12.10;;
46875;SDS011;32866;50.160;14.768;2022-11-11T12:29:40;19.97;;;12.10;;
46875;SDS011;32866;50.160;14.768;2022-11-11T12:48:50;21.60;;;13.50;;
46875;SDS011;32866;50.160;14.768;2022-11-11T12:53:58;19.27;;;13.03;;
46875;SDS011;32866;50.160;14.768;2022-11-11T12:56:41;18.05;;;12.27;;
46875;SDS011;32866;50.160;14.768;2022-11-11T13:15:47;22.20;;;14.18;;
46875;SDS011;32866;50.160;14.768;2022-11-11T13:20:55;17.17;;;11.13;;
46875;SDS011;32866;50.160;14.768;2022-11-11T13:23:23;18.70;;;10.73;;
46875;SDS011;32866;50.160;14.768;2022-11-11T13:25:50;21.92;;;12.48;;
46875;SDS011;32866;50.160;14.768;2022-11-11T13:28:23;19.13;;;11.87;;
46875;SDS011;32866;50.160;14.768;2022-11-11T13:33:36;19.03;;;11.40;;
46875;SDS011;32866;50.160;14.768;2022-11-11T13:36:07;19.27;;;12.70;;
46875;SDS011;32866;50.160;14.768;2022-11-11T13:38:37;24.87;;;12.70;;
46875;SDS011;32866;50.160;14.768;2022-11-11T13:41:06;31.07;;;14.13;;
46875;SDS011;32866;50.160;14.768;2022-11-11T13:43:34;21.70;;;14.03;;
46875;SDS011;32866;50.160;14.768;2022-11-11T13:46:00;27.60;;;13.97;;
46875;SDS011;32866;50.160;14.768;2022-11-11T13:48:31;23.27;;;13.30;;
46875;SDS011;32866;50.160;14.768;2022-11-11T13:54:00;20.40;;;14.67;;
46875;SDS011;32866;50.160;14.768;2022-11-11T13:56:39;23.00;;;14.07;;
46875;SDS011;32866;50.160;14.768;2022-11-11T13:59:13;21.50;;;13.50;;
46875;SDS011;32866;50.160;14.768;2022-11-11T14:01:47;18.20;;;11.87;;
46875;SDS011;32866;50.160;14.768;2022-11-11T14:10:09;18.90;;;11.77;;
46875;SDS011;32866;50.160;14.768;2022-11-11T14:12:55;19.77;;;12.60;;
46875;SDS011;32866;50.160;14.768;2022-11-11T14:15:42;18.67;;;12.13;;
46875;SDS011;32866;50.160;14.768;2022-11-11T14:20:40;19.40;;;12.73;;
46875;SDS011;32866;50.160;14.768;2022-11-11T14:25:45;16.57;;;11.73;;
46875;SDS011;32866;50.160;14.768;2022-11-11T14:30:57;18.00;;;12.37;;
46875;SDS011;32866;50.160;14.768;2022-11-11T14:33:47;27.20;;;12.23;;
46875;SDS011;32866;50.160;14.768;2022-11-11T14:36:25;24.07;;;11.90;;
46875;SDS011;32866;50.160;14.768;2022-11-11T14:44:58;23.23;;;12.60;;
46875;SDS011;32866;50.160;14.768;2022-11-11T14:47:34;18.90;;;12.38;;
46875;SDS011;32866;50.160;14.768;2022-11-11T14:50:02;23.30;;;13.77;;
46875;SDS011;32866;50.160;14.768;2022-11-11T14:52:47;17.93;;;13.60;;
46875;SDS011;32866;50.160;14.768;2022-11-11T14:57:47;18.33;;;11.30;;
46875;SDS011;32866;50.160;14.768;2022-11-11T15:00:28;16.50;;;12.10;;
46875;SDS011;32866;50.160;14.768;2022-11-11T15:02:59;20.07;;;12.17;;
46875;SDS011;32866;50.160;14.768;2022-11-11T15:16:11;17.27;;;11.30;;
46875;SDS011;32866;50.160;14.768;2022-11-11T15:22:14;25.57;;;13.10;;
46875;SDS011;32866;50.160;14.768;2022-11-11T15:25:06;23.43;;;13.93;;
46875;SDS011;32866;50.160;14.768;2022-11-11T15:27:35;25.63;;;14.03;;
46875;SDS011;32866;50.160;14.768;2022-11-11T15:30:09;25.70;;;15.07;;
46875;SDS011;32866;50.160;14.768;2022-11-11T15:32:44;17.83;;;12.23;;
46875;SDS011;32866;50.160;14.768;2022-11-11T15:38:14;28.40;;;16.00;;
46875;SDS011;32866;50.160;14.768;2022-11-11T15:43:11;26.03;;;15.70;;
46875;SDS011;32866;50.160;14.768;2022-11-11T15:45:39;25.57;;;15.87;;
46875;SDS011;32866;50.160;14.768;2022-11-11T15:48:11;30.05;;;15.57;;
46875;SDS011;32866;50.160;14.768;2022-11-11T15:50:40;25.70;;;14.87;;
46875;SDS011;32866;50.160;14.768;2022-11-11T15:53:09;28.17;;;15.40;;
46875;SDS011;32866;50.160;14.768;2022-11-11T15:55:37;28.33;;;16.20;;
46875;SDS011;32866;50.160;14.768;2022-11-11T15:58:07;27.40;;;15.93;;
46875;SDS011;32866;50.160;14.768;2022-11-11T16:00:34;29.13;;;17.93;;
46875;SDS011;32866;50.160;14.768;2022-11-11T16:03:00;37.80;;;20.20;;
46875;SDS011;32866;50.160;14.768;2022-11-11T16:05:26;29.98;;;18.33;;
46875;SDS011;32866;50.160;14.768;2022-11-11T16:07:53;34.77;;;21.20;;
46875;SDS011;32866;50.160;14.768;2022-11-11T16:10:25;41.87;;;22.30;;
46875;SDS011;32866;50.160;14.768;2022-11-11T16:15:27;37.37;;;23.17;;
46875;SDS011;32866;50.160;14.768;2022-11-11T16:18:03;35.70;;;21.30;;
46875;SDS011;32866;50.160;14.768;2022-11-11T16:20:34;36.17;;;21.47;;
46875;SDS011;32866;50.160;14.768;2022-11-11T16:23:06;35.13;;;21.33;;
46875;SDS011;32866;50.160;14.768;2022-11-11T16:25:33;37.00;;;20.40;;
46875;SDS011;32866;50.160;14.768;2022-11-11T16:27:59;38.65;;;22.17;;
46875;SDS011;32866;50.160;14.768;2022-11-11T16:30:34;35.63;;;21.73;;
46875;SDS011;32866;50.160;14.768;2022-11-11T16:33:01;34.28;;;20.77;;
46875;SDS011;32866;50.160;14.768;2022-11-11T16:37:55;37.43;;;20.67;;
46875;SDS011;32866;50.160;14.768;2022-11-11T16:40:39;35.92;;;20.83;;
46875;SDS011;32866;50.160;14.768;2022-11-11T16:43:12;36.73;;;20.63;;
46875;SDS011;32866;50.160;14.768;2022-11-11T16:45:52;35.90;;;19.93;;
46875;SDS011;32866;50.160;14.768;2022-11-11T16:50:58;39.30;;;21.40;;
46875;SDS011;32866;50.160;14.768;2022-11-11T16:53:28;36.63;;;19.93;;
46875;SDS011;32866;50.160;14.768;2022-11-11T16:55:58;33.13;;;20.30;;
46875;SDS011;32866;50.160;14.768;2022-11-11T16:58:25;29.47;;;20.03;;
46875;SDS011;32866;50.160;14.768;2022-11-11T17:00:57;23.70;;;17.10;;
46875;SDS011;32866;50.160;14.768;2022-11-11T17:03:24;29.10;;;17.03;;
46875;SDS011;32866;50.160;14.768;2022-11-11T17:06:07;29.97;;;17.90;;
46875;SDS011;32866;50.160;14.768;2022-11-11T17:11:06;34.63;;;21.57;;
46875;SDS011;32866;50.160;14.768;2022-11-11T17:13:35;31.33;;;17.63;;